Time;durP1;ratioP1;P1;durP2;ratioP2;P2;SDS_P1;SDS_P2;PMS_P1;PMS_P2;Temp;Humidity;BMP_temperature;BMP_pressure;BME280_temperature;BME280_humidity;BME280_pressure;Samples;Min_cycle;Max_cycle;Signal;HPM_P1;HPM_P2
2023/06/14 00:00:04;;;;;;;5.60;4.93;;;;;;;13.04;83.00;100493.03;5129237;27;20199;-62
2023/06/14 00:02:32;;;;;;;6.03;4.87;;;;;;;13.03;82.63;100493.91;5129912;27;20195;-63
2023/06/14 00:05:00;;;;;;;7.20;4.57;;;;;;;13.01;82.59;100490.47;5127308;27;20211;-62
2023/06/14 00:07:38;;;;;;;6.80;4.13;;;;;;;13.01;83.04;100487.88;5124283;27;20290;-62
2023/06/14 00:10:07;;;;;;;7.60;4.80;;;;;;;12.99;82.64;100483.59;5136668;27;20236;-62
2023/06/14 00:12:36;;;;;;;6.50;4.57;;;;;;;12.98;82.75;100493.09;5132929;27;20657;-61
2023/06/14 00:15:04;;;;;;;6.37;4.53;;;;;;;12.97;82.26;100488.81;5134155;27;20241;-63
2023/06/14 00:17:33;;;;;;;6.07;4.60;;;;;;;12.97;82.66;100485.38;5140195;27;20191;-62
2023/06/14 00:20:05;;;;;;;6.77;4.40;;;;;;;12.96;82.09;100484.53;5131437;27;20286;-62
2023/06/14 00:22:33;;;;;;;4.90;4.10;;;;;;;12.96;82.19;100486.22;5133830;27;20203;-62
2023/06/14 00:25:02;;;;;;;5.73;4.10;;;;;;;12.93;82.27;100484.56;5133874;27;20259;-61
2023/06/14 00:27:50;;;;;;;6.60;4.23;;;;;;;12.93;82.76;100479.41;5132888;27;20203;-63
2023/06/14 00:30:18;;;;;;;6.73;4.23;;;;;;;12.94;82.38;100469.91;5138903;27;20290;-62
2023/06/14 00:32:47;;;;;;;6.60;4.77;;;;;;;12.98;82.37;100485.34;5132207;27;20211;-63
2023/06/14 00:35:15;;;;;;;7.40;4.80;;;;;;;12.98;82.43;100472.41;5125675;27;20238;-61
2023/06/14 00:37:43;;;;;;;6.97;5.50;;;;;;;12.98;82.24;100477.59;5141793;27;20569;-62
2023/06/14 00:40:13;;;;;;;7.37;4.60;;;;;;;13.00;82.49;100477.59;5133678;27;20294;-62
2023/06/14 00:42:41;;;;;;;6.73;5.00;;;;;;;13.02;81.98;100478.41;5133691;27;20638;-63
2023/06/14 00:45:11;;;;;;;5.90;5.17;;;;;;;13.01;82.54;100464.59;5133213;27;20195;-63
2023/06/14 00:47:41;;;;;;;6.40;5.40;;;;;;;13.01;82.05;100472.38;5134223;27;20656;-62
2023/06/14 00:50:11;;;;;;;5.67;5.13;;;;;;;12.98;82.30;100464.66;5129649;27;20214;-61
2023/06/14 00:52:40;;;;;;;6.30;5.07;;;;;;;12.98;82.51;100469.81;5124695;27;20555;-63
2023/06/14 00:55:09;;;;;;;6.53;5.53;;;;;;;12.99;82.50;100471.53;5133457;27;20260;-62
2023/06/14 00:57:39;;;;;;;9.10;5.00;;;;;;;13.01;82.87;100474.09;5132752;27;20618;-62
2023/06/14 01:00:09;;;;;;;5.97;5.10;;;;;;;13.01;82.48;100477.53;5128756;27;20742;-63
2023/06/14 01:02:38;;;;;;;6.97;5.53;;;;;;;12.99;82.95;100476.69;5128902;27;20207;-64
2023/06/14 01:05:09;;;;;;;6.80;5.53;;;;;;;12.98;83.24;100476.72;5117873;27;21933;-64
2023/06/14 01:07:47;;;;;;;8.37;5.57;;;;;;;13.01;82.89;100468.94;5126578;27;20784;-63
2023/06/14 01:10:27;;;;;;;5.47;4.83;;;;;;;13.02;83.03;100474.06;5132642;27;20259;-64
2023/06/14 01:13:08;;;;;;;10.23;5.97;;;;;;;13.03;83.09;100470.63;5124834;27;20203;-65
2023/06/14 01:15:38;;;;;;;7.77;5.63;;;;;;;13.09;83.05;100474.00;5132071;27;20211;-65
2023/06/14 01:18:06;;;;;;;6.27;5.67;;;;;;;13.07;82.72;100471.44;5127304;27;20662;-64
2023/06/14 01:20:37;;;;;;;7.57;6.00;;;;;;;13.04;82.56;100481.81;5129806;27;20275;-65
2023/06/14 01:23:07;;;;;;;5.93;5.03;;;;;;;13.00;83.02;100475.84;5125604;27;20206;-64
2023/06/14 01:25:36;;;;;;;7.63;5.97;;;;;;;12.96;83.02;100473.31;5130119;27;20272;-65
2023/06/14 01:28:10;;;;;;;6.70;5.97;;;;;;;12.94;83.54;100473.34;5132448;27;20717;-62
2023/06/14 01:30:38;;;;;;;9.77;6.17;;;;;;;12.92;83.40;100466.47;5129566;27;20202;-65
2023/06/14 01:33:07;;;;;;;6.10;5.50;;;;;;;12.94;83.72;100473.34;5129387;27;20207;-63
2023/06/14 01:35:35;;;;;;;7.23;6.47;;;;;;;12.95;83.88;100466.44;5126303;27;20210;-63
2023/06/14 01:38:06;;;;;;;10.23;6.53;;;;;;;12.98;83.88;100471.56;5125241;27;20203;-64
2023/06/14 01:40:35;;;;;;;8.80;6.37;;;;;;;13.00;83.64;100465.50;5129118;27;20599;-64
2023/06/14 01:43:05;;;;;;;9.00;6.13;;;;;;;13.00;83.79;100470.66;5129593;27;20209;-63
2023/06/14 01:45:34;;;;;;;7.00;5.80;;;;;;;13.02;84.38;100466.31;5130608;27;20195;-62
2023/06/14 01:48:02;;;;;;;6.57;5.77;;;;;;;13.04;84.20;100461.13;5131267;27;20230;-63
2023/06/14 01:50:31;;;;;;;7.93;6.27;;;;;;;13.03;83.92;100460.28;5130776;27;20572;-63
2023/06/14 01:53:00;;;;;;;8.50;5.90;;;;;;;13.06;84.08;100469.72;5129680;27;20710;-64
2023/06/14 01:55:28;;;;;;;7.50;5.93;;;;;;;13.11;83.77;100465.34;5132048;27;20207;-63
2023/06/14 01:57:58;;;;;;;7.00;5.37;;;;;;;13.15;83.67;100468.72;5132126;27;20199;-64
2023/06/14 02:00:27;;;;;;;11.23;5.80;;;;;;;13.17;83.45;100467.81;5131184;27;20213;-63
2023/06/14 02:02:55;;;;;;;6.93;5.70;;;;;;;13.17;83.49;100456.59;5130927;27;20227;-64
2023/06/14 02:05:24;;;;;;;7.93;5.57;;;;;;;13.19;83.09;100450.53;5130213;27;20559;-64
2023/06/14 02:07:53;;;;;;;6.43;5.83;;;;;;;13.21;83.44;100451.34;5132669;27;20199;-63
2023/06/14 02:10:21;;;;;;;7.13;6.13;;;;;;;13.24;83.54;100440.16;5131252;27;20199;-64
2023/06/14 02:12:49;;;;;;;8.30;6.57;;;;;;;13.27;83.26;100442.69;5128371;27;20211;-63
2023/06/14 02:15:19;;;;;;;6.15;5.55;;;;;;;13.26;83.21;100451.34;5130628;27;20220;-63
2023/06/14 02:17:49;;;;;;;6.20;5.50;;;;;;;13.22;82.70;100449.66;5128157;27;20303;-63
2023/06/14 02:20:17;;;;;;;7.67;5.50;;;;;;;13.19;82.68;100463.47;5129615;27;20199;-63
2023/06/14 02:22:46;;;;;;;7.20;5.27;;;;;;;13.16;82.59;100468.69;5132171;27;20264;-64
2023/06/14 02:25:15;;;;;;;6.10;5.50;;;;;;;13.15;82.97;100458.38;5130109;27;20654;-63
2023/06/14 02:27:43;;;;;;;6.97;5.43;;;;;;;13.16;82.43;100460.09;5128328;27;20200;-64
2023/06/14 02:30:12;;;;;;;6.33;5.40;;;;;;;13.18;82.44;100463.47;5131176;27;20579;-63
2023/06/14 02:32:42;;;;;;;6.57;5.30;;;;;;;13.16;82.68;100457.50;5137381;27;20272;-64
2023/06/14 02:35:11;;;;;;;6.70;5.53;;;;;;;13.16;82.28;100454.91;5142913;27;20264;-64
2023/06/14 02:37:39;;;;;;;8.40;6.10;;;;;;;13.15;82.82;100454.06;5143398;27;20238;-64
2023/06/14 02:40:08;;;;;;;5.77;5.03;;;;;;;13.17;82.89;100454.88;5138625;27;20332;-64
2023/06/14 02:42:37;;;;;;;7.13;5.47;;;;;;;13.19;83.28;100460.91;5136271;27;20195;-63
2023/06/14 02:45:06;;;;;;;6.97;5.68;;;;;;;13.24;82.90;100455.66;5137538;27;20199;-63
2023/06/14 02:47:34;;;;;;;6.50;5.60;;;;;;;13.23;82.34;100446.19;5130248;27;20222;-64
2023/06/14 02:50:03;;;;;;;6.88;6.18;;;;;;;13.22;82.67;100442.72;5144914;27;20575;-64
2023/06/14 02:52:33;;;;;;;8.23;5.47;;;;;;;13.22;82.29;100434.97;5130355;27;20207;-64
2023/06/14 02:55:01;;;;;;;7.50;5.67;;;;;;;13.24;82.16;100435.81;5132951;27;20199;-64
2023/06/14 02:57:29;;;;;;;6.47;5.88;;;;;;;13.25;82.60;100444.44;5138531;27;20206;-64
2023/06/14 02:59:57;;;;;;;7.05;5.75;;;;;;;13.25;82.38;100439.25;5133926;27;20207;-62
2023/06/14 03:02:25;;;;;;;5.57;4.97;;;;;;;13.26;82.35;100446.16;5129180;27;20256;-63
2023/06/14 03:04:54;;;;;;;9.10;5.78;;;;;;;13.24;82.19;100442.72;5132886;27;20206;-64
2023/06/14 03:07:25;;;;;;;6.10;5.50;;;;;;;13.27;82.66;100437.50;5133522;27;20203;-63
2023/06/14 03:09:53;;;;;;;6.70;5.63;;;;;;;13.29;82.43;100444.38;5133599;27;20214;-64
2023/06/14 03:12:21;;;;;;;9.43;5.65;;;;;;;13.32;82.26;100440.88;5133816;27;20278;-63
2023/06/14 03:14:50;;;;;;;6.60;5.90;;;;;;;13.32;81.88;100443.44;5132699;27;20214;-65
2023/06/14 03:17:19;;;;;;;5.53;5.03;;;;;;;13.33;81.58;100445.19;5134088;27;20566;-64
2023/06/14 03:19:47;;;;;;;7.10;5.43;;;;;;;13.30;81.87;100442.66;5130416;27;20619;-65
2023/06/14 03:22:15;;;;;;;8.02;5.88;;;;;;;13.28;82.06;100446.97;5133137;27;20207;-64
2023/06/14 03:24:45;;;;;;;6.40;5.00;;;;;;;13.27;81.66;100440.94;5134109;27;20223;-63
2023/06/14 03:27:14;;;;;;;7.10;5.17;;;;;;;13.23;81.35;100436.69;5133135;27;20203;-65
2023/06/14 03:29:42;;;;;;;5.65;5.15;;;;;;;13.21;81.14;100443.59;5134784;27;20226;-64
2023/06/14 03:32:10;;;;;;;5.50;5.00;;;;;;;13.16;81.34;100434.22;5127443;27;20209;-64
2023/06/14 03:34:39;;;;;;;7.60;6.05;;;;;;;13.18;81.33;100443.66;5130512;27;20207;-65
2023/06/14 03:37:07;;;;;;;6.10;5.50;;;;;;;13.20;81.07;100448.81;5128013;27;20262;-63
2023/06/14 03:39:35;;;;;;;7.33;5.17;;;;;;;13.20;81.30;100439.31;5129716;27;20206;-62
2023/06/14 03:42:06;;;;;;;6.07;5.20;;;;;;;13.21;80.90;100438.41;5132987;27;20203;-64
2023/06/14 03:44:35;;;;;;;5.70;5.10;;;;;;;13.21;80.66;100432.38;5129612;27;20196;-64
2023/06/14 03:47:03;;;;;;;5.67;4.97;;;;;;;13.24;80.57;100437.56;5134710;27;20200;-64
2023/06/14 03:49:31;;;;;;;6.57;4.90;;;;;;;13.27;80.90;100437.50;5135295;27;20563;-64
2023/06/14 03:51:59;;;;;;;5.93;5.33;;;;;;;13.31;80.34;100436.56;5133716;27;20616;-63
2023/06/14 03:54:28;;;;;;;5.90;5.30;;;;;;;13.35;80.25;100434.78;5132153;27;20661;-63
2023/06/14 03:57:18;;;;;;;5.72;5.15;;;;;;;13.41;80.73;100435.56;5128158;27;20579;-64
2023/06/14 03:59:46;;;;;;;7.17;4.90;;;;;;;13.49;80.34;100444.03;5133802;27;20259;-62
2023/06/14 04:02:15;;;;;;;9.80;5.90;;;;;;;13.58;80.04;100444.75;5133716;27;20302;-64
2023/06/14 04:04:45;;;;;;;7.60;6.17;;;;;;;13.60;79.81;100438.66;5129698;27;20573;-64
2023/06/14 04:07:13;;;;;;;8.13;6.50;;;;;;;13.67;79.43;100448.03;5134117;27;20582;-64
2023/06/14 04:09:42;;;;;;;6.57;5.50;;;;;;;13.75;79.43;100453.09;5132244;27;20306;-64
2023/06/14 04:12:11;;;;;;;7.30;5.87;;;;;;;13.82;79.56;100448.66;5132723;27;20215;-65
2023/06/14 04:14:41;;;;;;;6.27;5.10;;;;;;;13.91;79.05;100448.47;5127493;27;20214;-64
2023/06/14 04:17:09;;;;;;;6.70;5.93;;;;;;;13.97;78.68;100450.94;5130464;27;20604;-65
2023/06/14 04:19:38;;;;;;;7.50;5.33;;;;;;;14.00;78.38;100461.25;5126777;27;20225;-63
2023/06/14 04:22:06;;;;;;;6.35;5.75;;;;;;;14.02;77.87;100446.53;5132996;27;20204;-65
2023/06/14 04:24:34;;;;;;;6.18;5.38;;;;;;;14.08;77.66;100453.34;5132330;27;20239;-64
2023/06/14 04:27:02;;;;;;;5.60;5.00;;;;;;;14.11;77.56;100451.53;5139349;27;20195;-64
2023/06/14 04:29:31;;;;;;;6.03;5.20;;;;;;;14.14;77.63;100455.78;5129271;27;20378;-64
2023/06/14 04:32:01;;;;;;;10.55;5.68;;;;;;;14.14;77.19;100442.84;5127940;27;20204;-64
2023/06/14 04:34:31;;;;;;;5.90;5.28;;;;;;;14.14;77.12;100440.25;5129579;27;20211;-65
2023/06/14 04:37:01;;;;;;;7.10;5.90;;;;;;;14.17;76.91;100446.22;5137634;27;20640;-64
2023/06/14 04:39:29;;;;;;;6.63;5.88;;;;;;;14.18;77.06;100436.72;5133143;27;20215;-65
2023/06/14 04:42:00;;;;;;;8.55;5.65;;;;;;;14.23;77.14;100437.47;5134212;27;20203;-66
2023/06/14 04:44:31;;;;;;;6.68;5.80;;;;;;;14.28;77.45;100435.63;5133115;27;20203;-67
2023/06/14 04:47:01;;;;;;;8.18;5.68;;;;;;;14.30;76.61;100427.84;5130396;27;20235;-64
2023/06/14 04:49:32;;;;;;;7.40;5.53;;;;;;;14.35;76.85;100437.22;5132535;27;20223;-65
2023/06/14 04:52:01;;;;;;;9.65;6.07;;;;;;;14.35;76.55;100429.44;5136386;27;20247;-68
2023/06/14 04:54:31;;;;;;;7.72;6.05;;;;;;;14.41;76.23;100436.25;5143991;27;20260;-65
2023/06/14 04:56:59;;;;;;;6.40;5.57;;;;;;;14.44;76.44;100442.22;5128006;27;20215;-66
2023/06/14 04:59:27;;;;;;;5.77;5.17;;;;;;;14.43;75.76;100445.72;5132348;27;20557;-64
2023/06/14 05:01:56;;;;;;;10.27;6.22;;;;;;;14.40;75.40;100444.94;5132196;27;21411;-64
2023/06/14 05:04:27;;;;;;;7.55;5.75;;;;;;;14.33;75.30;100448.53;5130087;27;20297;-63
2023/06/14 05:06:56;;;;;;;6.38;5.47;;;;;;;14.25;75.32;100451.28;5123686;27;20202;-62
2023/06/14 05:09:24;;;;;;;6.70;5.80;;;;;;;14.20;75.94;100453.94;5126463;27;20291;-64
2023/06/14 05:11:52;;;;;;;8.18;5.38;;;;;;;14.18;75.97;100457.47;5128229;27;20565;-64
2023/06/14 05:14:22;;;;;;;6.90;6.25;;;;;;;14.16;76.73;100452.28;5126780;27;20666;-62
2023/06/14 05:16:50;;;;;;;7.50;5.25;;;;;;;14.16;76.09;100456.63;5123025;27;20600;-63
2023/06/14 05:19:18;;;;;;;8.07;5.27;;;;;;;14.17;76.58;100454.00;5124482;27;20680;-61
2023/06/14 05:21:48;;;;;;;8.30;6.33;;;;;;;14.18;76.62;100460.06;5135232;27;20732;-65
2023/06/14 05:24:18;;;;;;;9.18;6.20;;;;;;;14.19;76.76;100462.59;5121921;27;20192;-65
2023/06/14 05:26:46;;;;;;;7.30;5.87;;;;;;;14.21;77.02;100454.78;5132778;27;20214;-65
2023/06/14 05:29:14;;;;;;;8.40;6.25;;;;;;;14.20;76.75;100464.31;5120949;27;20329;-64
2023/06/14 05:31:42;;;;;;;12.50;6.40;;;;;;;14.20;77.10;100463.44;5125896;27;20199;-65
2023/06/14 05:34:10;;;;;;;6.67;6.00;;;;;;;14.22;76.67;100453.94;5131282;27;20200;-64
2023/06/14 05:36:38;;;;;;;6.17;5.57;;;;;;;14.29;76.57;100465.88;5133501;27;20210;-64
2023/06/14 05:39:18;;;;;;;7.83;5.80;;;;;;;14.30;76.41;100464.97;5123515;27;20256;-70
2023/06/14 05:41:51;;;;;;;7.77;6.87;;;;;;;14.32;77.01;100465.78;5130455;27;20654;-63
2023/06/14 05:44:19;;;;;;;8.40;6.50;;;;;;;14.33;77.01;100458.91;5131643;27;20223;-62
2023/06/14 05:46:47;;;;;;;7.93;6.00;;;;;;;14.35;77.13;100460.56;5127854;27;20230;-67
2023/06/14 05:49:15;;;;;;;7.10;6.40;;;;;;;14.38;76.95;100468.28;5130487;27;20195;-64
2023/06/14 05:51:43;;;;;;;9.43;5.85;;;;;;;14.39;76.23;100467.38;5133638;27;20203;-65
2023/06/14 05:54:11;;;;;;;10.93;6.38;;;;;;;14.40;77.13;100463.06;5122079;27;20211;-62
2023/06/14 05:56:41;;;;;;;11.53;6.77;;;;;;;14.45;76.48;100466.41;5124689;27;20248;-62
2023/06/14 05:59:09;;;;;;;10.45;7.15;;;;;;;14.49;76.40;100466.34;5131062;27;20229;-64
2023/06/14 06:01:39;;;;;;;10.57;6.60;;;;;;;14.55;76.51;100464.53;5130064;27;20564;-62
2023/06/14 06:04:08;;;;;;;8.60;6.83;;;;;;;14.61;75.84;100466.97;5129271;27;20219;-62
2023/06/14 06:06:36;;;;;;;6.80;6.07;;;;;;;14.67;75.99;100464.25;5123290;27;20217;-63
2023/06/14 06:09:04;;;;;;;10.18;6.57;;;;;;;14.76;75.39;100464.03;5131842;27;20293;-63
2023/06/14 06:11:32;;;;;;;8.25;6.18;;;;;;;14.86;75.41;100465.53;5136006;27;20636;-64
2023/06/14 06:14:16;;;;;;;8.38;6.20;;;;;;;14.97;75.11;100458.38;5136148;27;20196;-63
2023/06/14 06:16:45;;;;;;;8.50;6.22;;;;;;;15.06;75.00;100459.03;5135433;27;20218;-62
2023/06/14 06:19:13;;;;;;;7.22;5.78;;;;;;;15.11;74.42;100458.06;5131518;27;20221;-63
2023/06/14 06:21:41;;;;;;;8.73;6.45;;;;;;;15.19;74.62;100453.53;5137477;27;20195;-63
2023/06/14 06:24:09;;;;;;;7.70;6.28;;;;;;;15.26;73.84;100461.19;5133477;27;20680;-63
2023/06/14 06:26:38;;;;;;;8.68;6.32;;;;;;;15.27;73.43;100473.25;5132257;27;20210;-63
2023/06/14 06:29:07;;;;;;;6.47;5.85;;;;;;;15.21;72.68;100472.53;5135191;27;20244;-64
2023/06/14 06:31:36;;;;;;;8.32;6.40;;;;;;;15.19;73.33;100473.44;5140146;27;20199;-65
2023/06/14 06:34:04;;;;;;;8.57;6.10;;;;;;;15.16;73.75;100473.50;5133411;27;20576;-64
2023/06/14 06:36:32;;;;;;;7.75;5.53;;;;;;;15.15;74.03;100477.00;5138101;27;20206;-65
2023/06/14 06:39:00;;;;;;;10.77;6.80;;;;;;;15.16;74.22;100470.91;5133141;27;20212;-67
2023/06/14 06:41:28;;;;;;;13.80;7.00;;;;;;;15.18;74.12;100477.78;5134513;27;20203;-63
2023/06/14 06:43:56;;;;;;;9.95;6.05;;;;;;;15.25;73.68;100475.06;5128398;27;20203;-65
2023/06/14 06:46:24;;;;;;;9.98;6.15;;;;;;;15.34;73.12;100477.41;5125697;27;20549;-64
2023/06/14 06:48:54;;;;;;;10.60;6.18;;;;;;;15.41;72.80;100474.63;5130756;27;20203;-63
2023/06/14 06:51:22;;;;;;;10.77;6.93;;;;;;;15.49;72.80;100468.41;5127337;27;20206;-63
2023/06/14 06:53:54;;;;;;;8.32;6.03;;;;;;;15.54;72.55;100472.59;5132809;27;20203;-65
2023/06/14 06:56:23;;;;;;;9.27;6.65;;;;;;;15.53;71.98;100470.03;5128651;27;20205;-63
2023/06/14 06:58:51;;;;;;;8.35;6.80;;;;;;;15.49;72.44;100476.19;5132982;27;20755;-63
2023/06/14 07:01:19;;;;;;;8.15;7.15;;;;;;;15.44;72.64;100473.72;5124814;27;20210;-65
2023/06/14 07:03:48;;;;;;;11.32;7.07;;;;;;;15.43;73.35;100472.88;5127514;27;20649;-65
2023/06/14 07:06:18;;;;;;;8.95;6.88;;;;;;;15.44;73.61;100474.56;5130959;27;20206;-66
2023/06/14 07:08:48;;;;;;;10.63;7.03;;;;;;;15.45;73.46;100481.44;5134084;27;20218;-61
2023/06/14 07:11:16;;;;;;;9.48;6.80;;;;;;;15.47;73.64;100476.25;5129301;27;20560;-64
2023/06/14 07:13:44;;;;;;;8.63;6.57;;;;;;;15.50;73.64;100485.69;5137306;27;20618;-62
2023/06/14 07:16:12;;;;;;;9.25;6.82;;;;;;;15.55;73.59;100476.03;5129245;27;20599;-63
2023/06/14 07:18:40;;;;;;;9.45;6.65;;;;;;;15.67;73.73;100475.75;5125623;27;20308;-63
2023/06/14 07:21:08;;;;;;;7.60;6.85;;;;;;;15.84;73.14;100478.78;5142126;27;20237;-63
2023/06/14 07:23:37;;;;;;;7.47;6.75;;;;;;;15.92;73.03;100481.19;5133980;27;20241;-62
2023/06/14 07:26:07;;;;;;;8.38;6.93;;;;;;;15.98;72.55;100480.13;5134486;27;20231;-63
2023/06/14 07:28:35;;;;;;;10.32;6.78;;;;;;;15.99;72.26;100485.31;5133771;27;20211;-61
2023/06/14 07:31:06;;;;;;;7.32;6.53;;;;;;;16.05;72.38;100485.13;5128643;27;20203;-57
2023/06/14 07:33:34;;;;;;;9.48;6.22;;;;;;;16.23;72.55;100485.53;5128590;27;20256;-59
2023/06/14 07:36:02;;;;;;;10.23;6.38;;;;;;;16.50;72.87;100494.31;5115195;27;20207;-72
2023/06/14 07:38:31;;;;;;;6.97;6.28;;;;;;;16.83;72.70;100490.75;5129664;27;20235;-71
2023/06/14 07:41:00;;;;;;;9.40;6.45;;;;;;;17.40;72.80;100483.75;5133371;27;20210;-62
2023/06/14 07:43:29;;;;;;;8.27;6.10;;;;;;;17.80;69.85;100485.91;5127133;27;20208;-63
2023/06/14 07:45:57;;;;;;;8.00;6.40;;;;;;;18.09;68.11;100484.06;5133208;27;20222;-66
2023/06/14 07:48:35;;;;;;;7.40;6.20;;;;;;;18.31;66.61;100484.13;5127586;27;20595;-66
2023/06/14 07:51:03;;;;;;;8.77;6.70;;;;;;;18.41;65.18;100495.06;5129743;27;20613;-66
2023/06/14 07:53:31;;;;;;;6.18;5.43;;;;;;;18.31;64.31;100492.81;5130434;27;20207;-67
2023/06/14 07:56:02;;;;;;;7.63;5.72;;;;;;;18.23;64.17;100487.03;5137995;27;20227;-65
2023/06/14 07:58:30;;;;;;;9.45;6.32;;;;;;;18.17;64.07;100487.22;5133896;27;20280;-65
2023/06/14 08:00:59;;;;;;;7.20;5.35;;;;;;;18.12;64.20;100491.78;5133846;27;20214;-65
2023/06/14 08:03:27;;;;;;;8.48;5.70;;;;;;;18.09;64.40;100494.47;5128736;27;20206;-66
2023/06/14 08:05:55;;;;;;;7.75;5.70;;;;;;;18.02;63.82;100498.22;5130091;27;20208;-65
2023/06/14 08:08:24;;;;;;;8.88;5.65;;;;;;;17.93;63.41;100501.13;5130648;27;20215;-68
2023/06/14 08:10:52;;;;;;;7.93;4.82;;;;;;;17.85;63.48;100507.44;5134810;27;20706;-69
2023/06/14 08:13:22;;;;;;;10.18;5.63;;;;;;;17.80;63.46;100503.31;5130148;27;20216;-69
2023/06/14 08:15:50;;;;;;;6.78;5.15;;;;;;;17.70;63.10;100494.06;5128542;27;20604;-67
2023/06/14 08:18:18;;;;;;;6.65;5.25;;;;;;;17.63;63.42;100496.00;5129746;27;20674;-68
2023/06/14 08:20:46;;;;;;;5.22;4.55;;;;;;;17.60;62.99;100502.19;5132364;27;20207;-69
2023/06/14 08:23:18;;;;;;;5.53;4.70;;;;;;;17.53;62.86;100502.47;5129978;27;20307;-70
2023/06/14 08:25:46;;;;;;;9.70;5.18;;;;;;;17.55;63.15;100508.44;5131290;27;20640;-69
2023/06/14 08:28:15;;;;;;;6.32;4.70;;;;;;;17.58;62.92;100505.75;5124344;27;20248;-70
2023/06/14 08:30:44;;;;;;;9.23;5.30;;;;;;;17.56;63.11;100515.34;5124799;27;20215;-69
2023/06/14 08:33:12;;;;;;;7.65;5.28;;;;;;;17.54;63.59;100511.97;5127568;27;20213;-69
2023/06/14 08:35:44;;;;;;;6.22;5.43;;;;;;;17.59;63.57;100510.06;5125879;27;20535;-68
2023/06/14 08:38:14;;;;;;;8.27;5.75;;;;;;;17.63;63.72;100502.06;5133754;27;20565;-69
2023/06/14 08:40:43;;;;;;;7.68;5.57;;;;;;;17.71;63.94;100504.44;5133142;27;20292;-70
2023/06/14 08:43:11;;;;;;;9.45;5.90;;;;;;;17.76;63.89;100502.56;5132009;27;20199;-71
2023/06/14 08:45:39;;;;;;;8.20;5.05;;;;;;;17.81;63.73;100491.97;5125846;27;20370;-69
2023/06/14 08:48:09;;;;;;;6.68;4.78;;;;;;;17.82;63.41;100491.06;5125852;27;20223;-66
2023/06/14 08:50:41;;;;;;;7.38;5.35;;;;;;;18.00;63.49;100500.00;5129109;27;20255;-69
2023/06/14 08:53:19;;;;;;;7.70;5.55;;;;;;;18.12;62.89;100489.16;5129535;27;20232;-70
2023/06/14 08:55:49;;;;;;;5.60;5.00;;;;;;;18.18;62.25;100488.91;5131998;27;20295;-68
2023/06/14 08:58:19;;;;;;;11.00;5.43;;;;;;;18.27;62.29;100487.75;5133188;27;20195;-65
2023/06/14 09:00:47;;;;;;;5.82;4.45;;;;;;;18.37;61.81;100483.03;5126312;27;20214;-66
2023/06/14 09:03:17;;;;;;;6.30;5.30;;;;;;;18.47;62.11;100484.41;5127383;27;20230;-67
2023/06/14 09:05:46;;;;;;;6.20;4.78;;;;;;;18.58;61.96;100487.47;5126580;27;20238;-65
2023/06/14 09:08:14;;;;;;;6.90;5.95;;;;;;;18.65;61.20;100488.09;5128602;27;20203;-68
2023/06/14 09:10:42;;;;;;;7.53;5.50;;;;;;;18.77;60.91;100488.50;5127897;27;20699;-68
2023/06/14 09:13:10;;;;;;;5.90;5.07;;;;;;;18.90;60.48;100491.50;5125417;27;20191;-69
2023/06/14 09:15:38;;;;;;;7.18;5.30;;;;;;;19.01;60.01;100480.63;5125571;27;20224;-67
2023/06/14 09:18:07;;;;;;;10.05;5.68;;;;;;;19.21;59.71;100498.97;5131791;27;20239;-69
2023/06/14 09:20:36;;;;;;;5.43;4.82;;;;;;;19.43;58.54;100488.50;5131737;27;20211;-66
2023/06/14 09:23:06;;;;;;;7.30;4.80;;;;;;;19.56;58.24;100488.84;5131808;27;20223;-66
2023/06/14 09:25:43;;;;;;;8.30;5.45;;;;;;;19.61;57.79;100489.50;5131924;27;20234;-66
2023/06/14 09:28:11;;;;;;;9.63;5.00;;;;;;;19.58;57.66;100488.78;5126977;27;20199;-68
2023/06/14 09:30:40;;;;;;;7.93;6.15;;;;;;;19.50;58.21;100489.09;5127675;27;20199;-69
2023/06/14 09:33:08;;;;;;;6.93;5.18;;;;;;;19.44;58.30;100489.34;5128525;27;20578;-66
2023/06/14 09:35:38;;;;;;;7.07;5.50;;;;;;;19.34;58.47;100488.03;5127319;27;20223;-67
2023/06/14 09:38:06;;;;;;;6.57;5.20;;;;;;;19.20;58.62;100484.22;5126226;27;20203;-69
2023/06/14 09:40:39;;;;;;;5.75;5.15;;;;;;;19.03;59.37;100490.09;5134635;27;20211;-68
2023/06/14 09:43:09;;;;;;;12.00;5.18;;;;;;;18.95;60.00;100494.78;5123954;27;20249;-67
2023/06/14 09:45:40;;;;;;;8.90;5.00;;;;;;;18.88;60.37;100490.69;5130428;27;20199;-68
2023/06/14 09:48:09;;;;;;;8.10;5.45;;;;;;;18.85;60.43;100488.19;5130067;27;20642;-67
2023/06/14 09:50:40;;;;;;;6.55;5.53;;;;;;;18.96;60.48;100498.22;5131361;27;20207;-66
2023/06/14 09:53:11;;;;;;;4.72;4.32;;;;;;;18.99;59.02;100498.13;5128524;27;20326;-67
2023/06/14 09:55:41;;;;;;;4.45;4.05;;;;;;;19.01;57.41;100497.16;5124920;27;20207;-67
2023/06/14 09:58:12;;;;;;;4.95;4.25;;;;;;;19.17;56.71;100492.16;5129670;27;20203;-68
2023/06/14 10:00:41;;;;;;;6.20;4.07;;;;;;;19.43;55.46;100492.88;5127255;27;20211;-68
2023/06/14 10:03:14;;;;;;;4.80;4.30;;;;;;;19.63;54.72;100489.47;5126537;27;20210;-66
2023/06/14 10:05:46;;;;;;;6.93;4.43;;;;;;;19.88;54.31;100487.50;5128168;27;20196;-68
2023/06/14 10:08:17;;;;;;;5.20;4.15;;;;;;;20.07;54.09;100484.97;5124483;27;20294;-67
2023/06/14 10:10:45;;;;;;;8.55;4.40;;;;;;;20.30;53.89;100480.47;5128595;27;20194;-66
2023/06/14 10:13:15;;;;;;;11.02;4.43;;;;;;;20.57;53.01;100488.88;5129208;27;20234;-69
2023/06/14 10:15:56;;;;;;;6.35;4.13;;;;;;;20.85;51.76;100481.44;5131457;27;20261;-70
2023/06/14 10:18:33;;;;;;;5.32;3.78;;;;;;;21.05;50.85;100488.34;5126609;27;20223;-69
2023/06/14 10:21:14;;;;;;;3.58;3.17;;;;;;;21.08;49.57;100482.09;5127101;27;20219;-69
2023/06/14 10:23:45;;;;;;;6.47;3.90;;;;;;;21.13;48.40;100480.94;5129015;27;20233;-68
2023/06/14 10:26:22;;;;;;;5.03;3.88;;;;;;;21.65;47.51;100488.91;5124712;27;20235;-68
2023/06/14 10:29:02;;;;;;;5.57;3.90;;;;;;;22.13;45.93;100483.84;5133065;27;20555;-68
2023/06/14 10:31:44;;;;;;;3.83;2.90;;;;;;;21.91;45.14;100492.00;5126764;27;20290;-68
2023/06/14 10:34:12;;;;;;;4.70;2.63;;;;;;;21.56;44.78;100484.13;5129077;27;20188;-67
2023/06/14 10:36:43;;;;;;;4.60;3.03;;;;;;;21.24;46.00;100485.66;5125330;27;20206;-68
2023/06/14 10:39:19;;;;;;;4.80;3.08;;;;;;;21.08;46.42;100479.50;5129349;27;20199;-68
2023/06/14 10:41:55;;;;;;;3.58;2.85;;;;;;;20.96;46.42;100478.31;5126192;27;20209;-67
2023/06/14 10:44:41;;;;;;;5.07;3.33;;;;;;;20.87;46.73;100476.09;5131064;27;20585;-68
2023/06/14 10:47:20;;;;;;;3.47;3.10;;;;;;;20.73;47.25;100480.25;5132042;27;20314;-70
2023/06/14 10:49:52;;;;;;;4.63;3.40;;;;;;;20.53;47.88;100482.91;5126654;27;20242;-69
2023/06/14 10:52:25;;;;;;;5.10;3.50;;;;;;;20.30;48.57;100481.31;5129351;27;20218;-70
2023/06/14 10:55:11;;;;;;;4.38;3.08;;;;;;;20.11;48.59;100477.84;5135825;27;20199;-68
2023/06/14 10:57:41;;;;;;;3.25;2.95;;;;;;;20.07;48.88;100471.00;5129975;27;20274;-67
2023/06/14 11:00:22;;;;;;;5.97;3.05;;;;;;;20.25;48.48;100475.41;5131954;27;20211;-68
2023/06/14 11:03:32;;;;;;;3.10;2.80;;;;;;;20.35;47.61;100473.25;5134471;27;20245;-69
2023/06/14 11:06:00;;;;;;;5.60;2.78;;;;;;;20.44;47.66;100472.84;5127099;27;20227;-69
2023/06/14 11:09:11;;;;;;;5.07;2.75;;;;;;;20.52;46.87;100476.00;5133692;27;20977;-68
2023/06/14 11:11:42;;;;;;;5.93;3.00;;;;;;;20.43;47.23;100478.97;5131657;27;20195;-67
2023/06/14 11:14:11;;;;;;;4.18;3.10;;;;;;;20.52;47.40;100473.38;5128725;27;20290;-72
2023/06/14 11:16:39;;;;;;;4.97;3.45;;;;;;;20.61;47.69;100462.47;5132680;27;20218;-67
2023/06/14 11:19:07;;;;;;;4.57;3.10;;;;;;;20.70;47.39;100458.59;5134341;27;20249;-66
2023/06/14 11:21:40;;;;;;;5.75;3.22;;;;;;;20.85;47.50;100457.88;5133857;27;20218;-67
2023/06/14 11:24:13;;;;;;;4.30;3.45;;;;;;;21.27;46.81;100454.06;5133577;27;20820;-66
2023/06/14 11:26:42;;;;;;;4.70;3.30;;;;;;;21.74;46.04;100452.66;5126816;27;20248;-66
2023/06/14 11:29:10;;;;;;;4.10;3.47;;;;;;;21.97;45.62;100462.78;5131508;27;20195;-65
2023/06/14 11:31:38;;;;;;;5.90;3.72;;;;;;;22.15;44.58;100453.97;5130080;27;20214;-66
2023/06/14 11:34:07;;;;;;;3.75;3.15;;;;;;;23.09;43.09;100451.50;5130804;27;20558;-65
2023/06/14 11:36:35;;;;;;;4.88;3.40;;;;;;;24.15;41.21;100453.13;5134317;27;20700;-65